Time;durP1;ratioP1;P1;durP2;ratioP2;P2;SDS_P1;SDS_P2;PMS_P1;PMS_P2;Temp;Humidity;BMP_temperature;BMP_pressure;BME280_temperature;BME280_humidity;BME280_pressure;Samples;Min_cycle;Max_cycle;Signal;HPM_P1;HPM_P2
2022/08/16 00:01:10;;;;;;;4.57;4.17;;;19.70;80.80;;;;;;5118865;27;20266;-58
2022/08/16 00:03:35;;;;;;;5.90;4.20;;;19.80;81.30;;;;;;5081463;28;20194;-58
2022/08/16 00:06:01;;;;;;;6.27;4.20;;;19.80;80.20;;;;;;5079774;28;20191;-58
2022/08/16 00:08:27;;;;;;;4.97;4.30;;;19.70;80.80;;;;;;5097502;27;20194;-59
2022/08/16 00:10:52;;;;;;;4.37;3.97;;;19.80;81.10;;;;;;5081168;28;20196;-58
2022/08/16 00:13:18;;;;;;;4.10;3.80;;;19.70;81.10;;;;;;5103240;27;20193;-58
2022/08/16 00:15:47;;;;;;;5.70;4.30;;;19.70;81.10;;;;;;5102248;27;20187;-58
2022/08/16 00:18:15;;;;;;;5.40;4.07;;;19.70;80.80;;;;;;5118611;27;20354;-58
2022/08/16 00:20:43;;;;;;;6.90;4.00;;;19.70;80.50;;;;;;5101634;27;20191;-58
2022/08/16 00:23:09;;;;;;;4.77;4.20;;;19.70;80.10;;;;;;5118883;27;20183;-58
2022/08/16 00:25:35;;;;;;;5.37;4.03;;;19.60;78.00;;;;;;5118192;27;20239;-58
2022/08/16 00:28:01;;;;;;;4.63;4.10;;;19.50;77.80;;;;;;5109465;27;20199;-58
2022/08/16 00:30:27;;;;;;;4.53;4.13;;;19.50;77.40;;;;;;5097527;28;20188;-58
2022/08/16 00:32:56;;;;;;;5.73;4.00;;;19.60;77.60;;;;;;5090026;27;20259;-58
2022/08/16 00:35:25;;;;;;;4.77;4.00;;;19.60;78.50;;;;;;5112343;27;20183;-58
2022/08/16 00:37:51;;;;;;;4.67;3.80;;;19.70;79.00;;;;;;5114465;27;20215;-58
2022/08/16 00:40:21;;;;;;;4.33;3.93;;;19.70;79.30;;;;;;5106017;28;20184;-58
2022/08/16 00:42:47;;;;;;;4.40;4.00;;;19.70;79.40;;;;;;5109239;27;20211;-58
2022/08/16 00:45:19;;;;;;;5.23;3.63;;;19.70;79.40;;;;;;5101074;27;20191;-58
2022/08/16 00:47:46;;;;;;;4.80;4.27;;;19.60;79.60;;;;;;5118407;27;20219;-58
2022/08/16 00:50:12;;;;;;;4.33;3.93;;;19.60;79.70;;;;;;5117945;27;20212;-58
2022/08/16 00:52:39;;;;;;;4.23;3.83;;;19.50;80.30;;;;;;5088790;28;20192;-58
2022/08/16 00:55:06;;;;;;;4.40;3.67;;;19.50;79.10;;;;;;5116552;27;20199;-58
2022/08/16 00:57:31;;;;;;;3.60;3.30;;;19.50;77.80;;;;;;5107495;28;20216;-58
2022/08/16 00:59:57;;;;;;;9.67;4.63;;;19.40;77.00;;;;;;5133090;27;20187;-58
2022/08/16 01:02:23;;;;;;;4.53;3.37;;;19.40;77.60;;;;;;5100658;27;20191;-58
2022/08/16 01:04:48;;;;;;;4.27;3.17;;;19.40;77.80;;;;;;5106203;27;20204;-58
2022/08/16 01:07:14;;;;;;;4.43;4.03;;;19.40;76.50;;;;;;5096822;28;20184;-58
2022/08/16 01:09:40;;;;;;;3.70;3.37;;;19.40;77.10;;;;;;5092536;27;20191;-58
2022/08/16 01:12:09;;;;;;;7.60;3.87;;;19.40;76.90;;;;;;5079877;27;20235;-58
2022/08/16 01:14:48;;;;;;;4.57;3.67;;;19.50;77.80;;;;;;5116881;27;20192;-58
2022/08/16 01:17:15;;;;;;;3.37;3.07;;;19.50;77.70;;;;;;5106664;28;20237;-58
2022/08/16 01:19:52;;;;;;;3.70;3.40;;;19.40;77.00;;;;;;5107690;27;20214;-58
2022/08/16 01:22:27;;;;;;;3.63;3.00;;;19.40;76.20;;;;;;5114621;27;20210;-58
2022/08/16 01:24:57;;;;;;;5.53;3.33;;;19.40;75.90;;;;;;5108755;27;20230;-58
2022/08/16 01:27:25;;;;;;;4.00;3.40;;;19.50;75.60;;;;;;5109042;27;20211;-58
2022/08/16 01:30:09;;;;;;;3.93;3.37;;;19.50;75.60;;;;;;5105166;27;20181;-58
2022/08/16 01:32:43;;;;;;;3.90;3.13;;;19.50;75.80;;;;;;5113263;28;20256;-58
2022/08/16 01:35:21;;;;;;;4.37;3.40;;;19.50;75.80;;;;;;5093056;28;20194;-58
2022/08/16 01:37:52;;;;;;;3.87;3.37;;;19.60;75.60;;;;;;5100412;28;20253;-58
2022/08/16 01:40:19;;;;;;;3.30;3.00;;;19.50;76.30;;;;;;5108159;27;20634;-58
2022/08/16 01:42:48;;;;;;;4.77;3.73;;;19.50;75.30;;;;;;5132904;27;20188;-58
2022/08/16 01:45:15;;;;;;;3.40;3.10;;;19.50;75.80;;;;;;5115796;28;20168;-58
2022/08/16 01:47:42;;;;;;;4.50;3.83;;;19.50;75.50;;;;;;5097589;27;20198;-58
2022/08/16 01:50:08;;;;;;;5.77;3.47;;;19.50;74.80;;;;;;5112160;28;20186;-58
2022/08/16 01:52:35;;;;;;;3.93;3.23;;;19.50;74.60;;;;;;5095388;28;20192;-58
2022/08/16 01:55:01;;;;;;;3.23;2.93;;;19.50;74.70;;;;;;5098043;28;20183;-58
2022/08/16 01:57:28;;;;;;;3.60;3.30;;;19.50;74.80;;;;;;5109985;28;20196;-59
2022/08/16 01:59:53;;;;;;;3.17;2.90;;;19.50;75.50;;;;;;5109115;28;20247;-59
2022/08/16 02:02:19;;;;;;;3.43;3.13;;;19.50;74.50;;;;;;5114267;28;20267;-58
2022/08/16 02:04:45;;;;;;;3.53;3.23;;;19.60;74.10;;;;;;5066267;28;20184;-58
2022/08/16 02:07:12;;;;;;;4.53;2.97;;;19.70;73.30;;;;;;5091250;28;20312;-58
2022/08/16 02:09:38;;;;;;;4.03;3.23;;;19.70;73.00;;;;;;5068758;28;20237;-58
2022/08/16 02:12:07;;;;;;;5.60;3.23;;;19.70;73.40;;;;;;5066668;28;20237;-58
2022/08/16 02:14:34;;;;;;;3.70;3.30;;;19.80;73.50;;;;;;5098096;28;20275;-58
2022/08/16 02:17:04;;;;;;;3.37;3.07;;;19.80;72.10;;;;;;5104102;28;20218;-58
2022/08/16 02:19:32;;;;;;;3.47;3.17;;;19.80;73.20;;;;;;5134041;28;20164;-58
2022/08/16 02:21:59;;;;;;;3.27;2.87;;;19.80;72.40;;;;;;5134824;28;20228;-58
2022/08/16 02:24:25;;;;;;;3.63;3.13;;;19.80;72.20;;;;;;5098900;28;20238;-58
2022/08/16 02:26:51;;;;;;;4.60;3.10;;;19.80;72.10;;;;;;5104628;28;20176;-58
2022/08/16 02:29:19;;;;;;;4.20;3.33;;;19.80;71.90;;;;;;5098306;28;20281;-58
2022/08/16 02:31:46;;;;;;;3.60;3.27;;;19.80;71.20;;;;;;5105514;28;20184;-58
2022/08/16 02:34:12;;;;;;;3.60;3.30;;;19.80;71.30;;;;;;5103474;28;20245;-58
2022/08/16 02:36:39;;;;;;;4.47;3.23;;;19.80;71.80;;;;;;5087945;28;20199;-58
2022/08/16 02:39:06;;;;;;;4.33;3.17;;;19.80;71.20;;;;;;5097974;28;20229;-58
2022/08/16 02:41:32;;;;;;;4.20;3.40;;;19.90;71.10;;;;;;5102047;28;20187;-58
2022/08/16 02:43:58;;;;;;;3.80;3.30;;;19.90;71.30;;;;;;5128189;28;20172;-58
2022/08/16 02:46:25;;;;;;;3.80;3.50;;;19.90;70.40;;;;;;5116528;28;20188;-58
2022/08/16 02:48:51;;;;;;;3.27;2.97;;;19.90;71.10;;;;;;5104666;28;20210;-58
2022/08/16 02:51:17;;;;;;;3.60;3.30;;;20.00;71.70;;;;;;5079255;28;20196;-59
2022/08/16 02:53:45;;;;;;;4.93;3.57;;;20.00;71.50;;;;;;5094436;28;20189;-59
2022/08/16 02:56:13;;;;;;;3.37;3.07;;;20.00;71.10;;;;;;5110193;28;20214;-58
2022/08/16 02:58:40;;;;;;;3.60;3.30;;;20.00;71.10;;;;;;5102847;27;20200;-58
2022/08/16 03:01:06;;;;;;;3.23;2.93;;;20.00;71.00;;;;;;5094133;28;20196;-58
2022/08/16 03:03:33;;;;;;;3.63;3.33;;;20.00;71.00;;;;;;5105537;28;20365;-58
2022/08/16 03:05:59;;;;;;;3.50;2.83;;;20.00;70.90;;;;;;5090454;28;20271;-59
2022/08/16 03:08:25;;;;;;;4.63;3.10;;;20.10;70.80;;;;;;5113192;27;20282;-59
2022/08/16 03:10:51;;;;;;;3.53;3.20;;;20.10;70.70;;;;;;5109450;28;20199;-58
2022/08/16 03:13:17;;;;;;;3.43;2.90;;;20.10;70.80;;;;;;5113791;27;20185;-58
2022/08/16 03:15:44;;;;;;;3.50;3.20;;;20.10;71.40;;;;;;5100046;27;20296;-58
2022/08/16 03:18:11;;;;;;;3.97;3.30;;;20.10;68.60;;;;;;5110253;27;20200;-58
2022/08/16 03:20:37;;;;;;;4.57;3.30;;;20.10;69.50;;;;;;5114180;27;20184;-58
2022/08/16 03:23:04;;;;;;;3.53;3.20;;;20.10;69.50;;;;;;5078777;28;20192;-58
2022/08/16 03:25:31;;;;;;;5.93;3.60;;;20.10;68.80;;;;;;5094517;28;20228;-58
2022/08/16 03:27:56;;;;;;;4.77;2.87;;;20.10;69.00;;;;;;5117396;27;20262;-58
2022/08/16 03:30:27;;;;;;;3.60;3.30;;;20.10;68.50;;;;;;5102762;27;20287;-58
2022/08/16 03:32:53;;;;;;;4.47;3.03;;;20.20;68.10;;;;;;5118858;27;20227;-58
2022/08/16 03:35:21;;;;;;;4.10;3.30;;;20.20;68.80;;;;;;5104057;27;20214;-58
2022/08/16 03:37:51;;;;;;;5.43;3.17;;;20.10;69.00;;;;;;5118066;27;20208;-58
2022/08/16 03:40:16;;;;;;;3.57;3.00;;;20.10;68.80;;;;;;5106765;27;20180;-58
2022/08/16 03:42:42;;;;;;;5.30;3.07;;;20.00;69.20;;;;;;5095482;27;20237;-58
2022/08/16 03:45:08;;;;;;;3.90;3.00;;;20.10;69.50;;;;;;5099458;27;20188;-58
2022/08/16 03:47:34;;;;;;;3.20;2.90;;;20.00;68.90;;;;;;5102096;27;20219;-59
2022/08/16 03:50:00;;;;;;;3.97;3.07;;;20.00;68.90;;;;;;5118784;27;20220;-58
2022/08/16 03:52:26;;;;;;;3.70;3.07;;;20.10;68.30;;;;;;5117244;27;20184;-58
2022/08/16 03:54:52;;;;;;;4.73;3.03;;;20.10;67.40;;;;;;5101895;27;20222;-58
2022/08/16 03:57:18;;;;;;;3.30;2.90;;;20.20;68.50;;;;;;5101138;27;20211;-58
2022/08/16 03:59:44;;;;;;;3.30;3.00;;;20.10;68.60;;;;;;5101534;27;20184;-58
2022/08/16 04:02:11;;;;;;;4.13;3.00;;;20.00;68.60;;;;;;5101512;27;20191;-58
2022/08/16 04:04:37;;;;;;;3.10;2.80;;;20.00;68.90;;;;;;5088050;27;20241;-58
2022/08/16 04:07:05;;;;;;;3.03;2.50;;;20.00;68.20;;;;;;5107683;27;20193;-58
2022/08/16 04:09:32;;;;;;;3.03;2.83;;;20.20;67.10;;;;;;5109217;28;20224;-58
2022/08/16 04:11:58;;;;;;;5.20;2.80;;;20.20;67.20;;;;;;5118277;27;20332;-58
2022/08/16 04:14:24;;;;;;;3.10;2.80;;;20.20;67.50;;;;;;5096786;27;20215;-59
2022/08/16 04:16:49;;;;;;;3.23;2.70;;;20.20;67.80;;;;;;5130402;27;20299;-58
2022/08/16 04:19:15;;;;;;;2.93;2.73;;;20.20;68.50;;;;;;5097088;27;20191;-58
2022/08/16 04:21:41;;;;;;;3.40;2.97;;;20.20;67.80;;;;;;5133006;27;20179;-58
2022/08/16 04:24:06;;;;;;;3.27;2.90;;;20.20;67.70;;;;;;5098256;27;20242;-58
2022/08/16 04:26:32;;;;;;;5.20;3.10;;;20.20;67.80;;;;;;5076371;27;20191;-58
2022/08/16 04:29:03;;;;;;;3.90;2.93;;;20.20;67.70;;;;;;5072187;28;20190;-58
2022/08/16 04:31:29;;;;;;;3.87;2.83;;;20.20;67.80;;;;;;5106653;27;20186;-58
2022/08/16 04:33:58;;;;;;;4.37;2.80;;;20.20;68.00;;;;;;5135379;27;20191;-58
2022/08/16 04:36:26;;;;;;;3.27;2.43;;;20.20;67.40;;;;;;5071907;28;20188;-58
2022/08/16 04:38:52;;;;;;;3.90;2.80;;;20.20;67.30;;;;;;5116490;27;20184;-58
2022/08/16 04:41:18;;;;;;;3.13;2.53;;;20.30;67.10;;;;;;5116536;27;20176;-58
2022/08/16 04:43:43;;;;;;;4.63;2.80;;;20.30;67.40;;;;;;5135125;27;20250;-58
2022/08/16 04:46:09;;;;;;;3.70;2.40;;;20.30;67.30;;;;;;5084382;27;20180;-58
2022/08/16 04:48:34;;;;;;;3.43;2.77;;;20.40;66.60;;;;;;5101261;27;20198;-58
2022/08/16 04:51:01;;;;;;;4.17;2.43;;;20.40;67.10;;;;;;5095405;28;20188;-58
2022/08/16 04:53:27;;;;;;;2.83;2.60;;;20.50;66.60;;;;;;5108421;27;20262;-58
2022/08/16 04:55:54;;;;;;;6.17;2.50;;;20.50;67.00;;;;;;5100811;27;20199;-58
2022/08/16 04:58:19;;;;;;;3.60;2.37;;;20.50;66.40;;;;;;5095565;28;20211;-58
2022/08/16 05:00:45;;;;;;;3.30;2.50;;;20.50;66.50;;;;;;5090355;28;20176;-58
2022/08/16 05:03:12;;;;;;;4.07;2.50;;;20.50;66.70;;;;;;5105228;28;20180;-58
2022/08/16 05:05:39;;;;;;;4.10;2.50;;;20.50;66.80;;;;;;5104508;27;20416;-58
2022/08/16 05:08:06;;;;;;;2.77;2.50;;;20.50;66.70;;;;;;5115870;27;20223;-58
2022/08/16 05:10:31;;;;;;;5.33;2.60;;;20.50;67.20;;;;;;5114869;27;20188;-58
2022/08/16 05:12:58;;;;;;;3.53;2.43;;;20.50;66.70;;;;;;5116217;27;20180;-58
2022/08/16 05:15:25;;;;;;;3.97;2.60;;;20.50;67.10;;;;;;5116089;27;20228;-58
2022/08/16 05:17:51;;;;;;;3.97;2.50;;;20.40;67.30;;;;;;5117197;27;20202;-58
2022/08/16 05:20:17;;;;;;;4.37;2.80;;;20.50;67.40;;;;;;5095053;27;20180;-58
2022/08/16 05:22:43;;;;;;;3.87;2.90;;;20.40;67.40;;;;;;5111119;27;20196;-58
2022/08/16 05:25:11;;;;;;;3.40;2.53;;;20.50;67.90;;;;;;5087331;28;20232;-58
2022/08/16 05:27:37;;;;;;;3.20;2.87;;;20.50;68.90;;;;;;5114105;27;20187;-58
2022/08/16 05:30:06;;;;;;;3.20;2.90;;;20.50;67.80;;;;;;5100274;27;20213;-58
2022/08/16 05:32:33;;;;;;;5.80;3.00;;;20.50;68.50;;;;;;5110779;28;20240;-58
2022/08/16 05:34:59;;;;;;;3.13;2.63;;;20.50;68.90;;;;;;5081220;27;20191;-58
2022/08/16 05:37:25;;;;;;;5.93;2.70;;;20.50;68.10;;;;;;5099176;27;20226;-58
2022/08/16 05:39:51;;;;;;;3.27;2.80;;;20.50;67.70;;;;;;5096491;27;20188;-58
2022/08/16 05:42:17;;;;;;;3.83;2.80;;;20.50;67.60;;;;;;5110513;27;20191;-58
2022/08/16 05:44:43;;;;;;;6.27;2.83;;;20.50;68.30;;;;;;5107033;28;20183;-58
2022/08/16 05:47:08;;;;;;;3.63;3.13;;;20.50;67.70;;;;;;5092352;27;20240;-58
2022/08/16 05:49:34;;;;;;;3.27;2.97;;;20.60;68.00;;;;;;5078038;27;20197;-58
2022/08/16 05:52:00;;;;;;;4.03;2.80;;;20.60;68.00;;;;;;5116683;28;20188;-58
2022/08/16 05:54:26;;;;;;;3.57;2.50;;;20.60;67.80;;;;;;5105705;28;20199;-59
2022/08/16 05:56:54;;;;;;;5.27;3.13;;;20.70;68.00;;;;;;5093056;28;20617;-58
2022/08/16 05:59:19;;;;;;;4.57;2.83;;;20.70;67.50;;;;;;5116785;28;20186;-58
2022/08/16 06:01:49;;;;;;;3.10;2.30;;;20.70;67.70;;;;;;5108332;28;20188;-58
2022/08/16 06:04:15;;;;;;;5.37;3.27;;;20.80;67.80;;;;;;5092209;28;20248;-58
2022/08/16 06:06:42;;;;;;;4.77;2.90;;;20.80;67.30;;;;;;5131160;28;20219;-58
2022/08/16 06:09:08;;;;;;;3.57;2.50;;;20.80;67.50;;;;;;5114854;28;20187;-58
2022/08/16 06:11:34;;;;;;;3.87;2.63;;;20.80;67.30;;;;;;5097390;28;20703;-58
2022/08/16 06:14:00;;;;;;;4.20;3.03;;;20.90;67.50;;;;;;5114306;28;20183;-59
2022/08/16 06:16:26;;;;;;;2.90;2.70;;;20.90;68.70;;;;;;5097300;28;20211;-59
2022/08/16 06:18:52;;;;;;;2.93;2.50;;;21.00;67.00;;;;;;5085815;28;20211;-59
2022/08/16 06:21:17;;;;;;;4.23;2.50;;;21.00;67.20;;;;;;5082177;28;20274;-59
2022/08/16 06:23:43;;;;;;;2.57;2.37;;;21.10;67.10;;;;;;5091826;28;20328;-58
2022/08/16 06:26:09;;;;;;;9.20;2.40;;;21.10;66.60;;;;;;5101213;28;20188;-59
2022/08/16 06:28:35;;;;;;;2.83;2.60;;;21.10;67.00;;;;;;5102524;28;20283;-59
2022/08/16 06:31:01;;;;;;;3.97;2.53;;;21.10;67.10;;;;;;5098066;27;20201;-58
2022/08/16 06:33:27;;;;;;;5.40;3.20;;;21.10;67.40;;;;;;5114950;27;20191;-59
2022/08/16 06:35:55;;;;;;;2.80;2.60;;;21.20;67.40;;;;;;5114558;27;20196;-59
2022/08/16 06:38:21;;;;;;;2.90;2.70;;;21.20;66.80;;;;;;5115131;27;20217;-58
2022/08/16 06:40:47;;;;;;;4.50;2.80;;;21.30;66.20;;;;;;5095825;27;20188;-57
2022/08/16 06:43:13;;;;;;;2.33;2.17;;;21.30;66.40;;;;;;5102851;27;20209;-58
2022/08/16 06:45:41;;;;;;;2.73;2.00;;;21.30;65.80;;;;;;5103653;27;20224;-58
2022/08/16 06:48:08;;;;;;;2.53;2.30;;;21.30;65.70;;;;;;5099743;27;20187;-58
2022/08/16 06:50:34;;;;;;;3.60;2.60;;;21.30;66.20;;;;;;5092756;27;20194;-59
2022/08/16 06:53:00;;;;;;;2.73;2.53;;;21.40;65.90;;;;;;5099072;28;20245;-59
2022/08/16 06:55:27;;;;;;;3.60;2.87;;;21.30;66.20;;;;;;5133328;27;20240;-59
2022/08/16 06:57:53;;;;;;;2.70;2.50;;;21.40;65.70;;;;;;5119423;27;20216;-59
2022/08/16 07:00:20;;;;;;;3.57;2.47;;;21.50;65.80;;;;;;5119158;27;20203;-58
2022/08/16 07:02:46;;;;;;;3.13;2.30;;;21.50;65.50;;;;;;5119701;27;20240;-58
2022/08/16 07:05:14;;;;;;;2.60;2.40;;;21.50;65.90;;;;;;5103142;27;20179;-58
2022/08/16 07:07:41;;;;;;;4.40;2.90;;;21.50;64.90;;;;;;5112956;27;20192;-59
2022/08/16 07:10:08;;;;;;;5.93;2.47;;;21.70;64.90;;;;;;5117692;27;20186;-63
2022/08/16 07:12:34;;;;;;;3.43;2.57;;;21.70;65.10;;;;;;5097423;27;20243;-59
2022/08/16 07:15:00;;;;;;;2.70;2.50;;;21.80;64.90;;;;;;5114227;27;20192;-59
2022/08/16 07:17:26;;;;;;;2.80;2.40;;;21.80;65.40;;;;;;5132777;27;20218;-59
2022/08/16 07:19:53;;;;;;;3.63;2.20;;;21.80;64.80;;;;;;5137547;27;20262;-59
2022/08/16 07:22:20;;;;;;;3.87;2.80;;;21.90;64.80;;;;;;5115874;27;20183;-59
2022/08/16 07:24:45;;;;;;;3.00;2.70;;;21.90;65.20;;;;;;5105126;27;20231;-59
2022/08/16 07:27:11;;;;;;;3.97;2.73;;;22.00;65.10;;;;;;5101329;27;20194;-59
2022/08/16 07:29:38;;;;;;;6.67;2.90;;;22.00;64.70;;;;;;5113439;27;20191;-59
2022/08/16 07:32:05;;;;;;;2.33;2.13;;;22.00;64.60;;;;;;5102370;27;20191;-59
2022/08/16 07:34:31;;;;;;;3.40;2.73;;;22.10;64.80;;;;;;5111621;28;20185;-59
2022/08/16 07:36:59;;;;;;;4.97;3.10;;;22.10;65.00;;;;;;5090727;28;20212;-59
2022/08/16 07:39:25;;;;;;;5.53;3.77;;;22.10;64.50;;;;;;5103554;27;20187;-59
2022/08/16 07:41:51;;;;;;;7.20;3.10;;;22.20;63.80;;;;;;5102484;27;20179;-59
2022/08/16 07:44:17;;;;;;;3.77;2.33;;;22.20;64.40;;;;;;5105638;27;20205;-59
2022/08/16 07:46:42;;;;;;;3.43;3.03;;;22.20;63.70;;;;;;5100678;27;20184;-60
2022/08/16 07:49:08;;;;;;;2.70;2.50;;;22.30;64.20;;;;;;5084136;27;20188;-59
2022/08/16 07:51:35;;;;;;;3.70;2.60;;;22.40;63.30;;;;;;5098612;27;20184;-59
2022/08/16 07:54:02;;;;;;;3.27;2.40;;;22.40;63.30;;;;;;5117147;27;20239;-59
2022/08/16 07:56:29;;;;;;;3.27;2.50;;;22.50;62.70;;;;;;5112144;28;20219;-59
2022/08/16 07:58:56;;;;;;;3.03;2.43;;;22.50;63.70;;;;;;5109771;27;20207;-59
2022/08/16 08:01:22;;;;;;;3.27;2.63;;;22.60;62.80;;;;;;5134562;27;20171;-59
2022/08/16 08:03:48;;;;;;;2.80;2.50;;;22.60;62.80;;;;;;5100546;27;20198;-59
2022/08/16 08:06:16;;;;;;;2.60;2.40;;;22.60;63.40;;;;;;5116501;27;20271;-59
2022/08/16 08:08:42;;;;;;;6.37;2.70;;;22.60;62.90;;;;;;5099943;27;20218;-59
2022/08/16 08:11:08;;;;;;;7.60;2.60;;;22.70;62.20;;;;;;5116528;27;20212;-59
2022/08/16 08:13:34;;;;;;;3.53;3.13;;;22.70;62.40;;;;;;5105654;27;20187;-59
2022/08/16 08:16:00;;;;;;;2.77;2.57;;;22.80;62.20;;;;;;5117019;27;20184;-59
2022/08/16 08:18:25;;;;;;;2.53;2.33;;;22.80;61.80;;;;;;5100204;27;20208;-59
2022/08/16 08:20:51;;;;;;;3.10;2.80;;;22.70;61.70;;;;;;5097841;27;20237;-59
2022/08/16 08:23:17;;;;;;;3.10;2.80;;;22.80;61.70;;;;;;5109463;27;20245;-59
2022/08/16 08:25:44;;;;;;;2.93;2.70;;;22.80;61.30;;;;;;5105248;27;20227;-60
2022/08/16 08:28:10;;;;;;;4.77;2.20;;;22.80;61.30;;;;;;5099214;27;20192;-60
2022/08/16 08:30:36;;;;;;;4.93;2.90;;;22.80;62.10;;;;;;5113814;27;20195;-59
2022/08/16 08:33:02;;;;;;;3.83;2.63;;;22.90;61.40;;;;;;5071441;27;20191;-59
2022/08/16 08:35:28;;;;;;;4.43;2.93;;;22.90;60.60;;;;;;5133439;27;20176;-59
2022/08/16 08:37:54;;;;;;;3.03;2.60;;;22.90;61.00;;;;;;5100133;27;20215;-59
2022/08/16 08:40:21;;;;;;;2.60;2.40;;;23.00;61.60;;;;;;5099554;27;20191;-59
2022/08/16 08:42:46;;;;;;;4.47;2.57;;;23.00;60.80;;;;;;5112516;27;20214;-59
2022/08/16 08:45:14;;;;;;;4.40;2.53;;;23.00;61.10;;;;;;5097534;27;20251;-59
2022/08/16 08:47:42;;;;;;;4.53;3.00;;;23.10;61.60;;;;;;5111940;27;20184;-59
2022/08/16 08:50:08;;;;;;;2.93;2.70;;;23.10;61.00;;;;;;5104812;27;20187;-59
2022/08/16 08:52:34;;;;;;;3.73;2.60;;;23.10;61.60;;;;;;5115812;27;20187;-63
2022/08/16 08:55:02;;;;;;;4.50;2.50;;;23.20;61.60;;;;;;5099229;27;20330;-61
2022/08/16 08:57:27;;;;;;;6.33;2.80;;;23.20;62.40;;;;;;5099381;27;20203;-61
2022/08/16 08:59:53;;;;;;;4.63;2.70;;;23.30;62.10;;;;;;5082018;27;20271;-61
2022/08/16 09:02:19;;;;;;;3.50;2.30;;;23.40;61.10;;;;;;5099474;27;20279;-60
2022/08/16 09:04:45;;;;;;;2.90;2.47;;;23.50;63.00;;;;;;5115463;27;20263;-59
2022/08/16 09:07:11;;;;;;;3.00;2.37;;;23.50;59.90;;;;;;5115810;27;20567;-59
2022/08/16 09:09:37;;;;;;;4.50;3.00;;;23.70;60.50;;;;;;5095742;27;20199;-59
2022/08/16 09:12:04;;;;;;;4.17;2.80;;;23.70;61.40;;;;;;5106959;28;20184;-59
2022/08/16 09:14:31;;;;;;;2.40;2.20;;;23.90;58.20;;;;;;5110473;27;20180;-59
2022/08/16 09:16:56;;;;;;;2.83;2.57;;;24.20;56.70;;;;;;5104948;27;20184;-59
2022/08/16 09:19:22;;;;;;;2.50;2.30;;;24.30;59.20;;;;;;5079183;28;20191;-59
2022/08/16 09:21:49;;;;;;;4.83;2.67;;;24.30;57.50;;;;;;5089139;28;20188;-59
2022/08/16 09:24:16;;;;;;;2.40;2.20;;;24.30;55.50;;;;;;5099014;27;20238;-59
2022/08/16 09:26:42;;;;;;;3.03;2.77;;;24.30;55.90;;;;;;5099057;27;20207;-59
2022/08/16 09:29:07;;;;;;;3.13;2.60;;;24.30;56.40;;;;;;5098543;27;20207;-59
2022/08/16 09:31:33;;;;;;;4.37;2.40;;;24.40;56.20;;;;;;5098831;27;20191;-59
2022/08/16 09:34:01;;;;;;;3.47;2.60;;;24.30;56.80;;;;;;5081092;27;20191;-59
2022/08/16 09:36:28;;;;;;;2.87;2.60;;;24.30;57.10;;;;;;5098408;27;20175;-59
2022/08/16 09:38:55;;;;;;;3.57;2.70;;;24.30;55.60;;;;;;5095703;27;20224;-59
2022/08/16 09:41:21;;;;;;;2.60;2.40;;;24.30;56.30;;;;;;5108803;28;20212;-59
2022/08/16 09:43:46;;;;;;;3.13;2.57;;;24.30;55.50;;;;;;5075914;28;20204;-59
2022/08/16 09:46:12;;;;;;;3.40;3.00;;;24.50;54.90;;;;;;5092128;27;20184;-59
2022/08/16 09:48:40;;;;;;;3.03;2.73;;;24.50;56.80;;;;;;5098293;27;20215;-59
2022/08/16 09:51:11;;;;;;;2.27;2.07;;;24.40;57.10;;;;;;5113031;28;20203;-59
2022/08/16 09:53:37;;;;;;;2.90;2.70;;;24.50;56.30;;;;;;5092708;28;20198;-59
2022/08/16 09:56:09;;;;;;;2.97;2.77;;;24.60;55.40;;;;;;5109129;28;20191;-59
2022/08/16 09:58:34;;;;;;;2.53;2.33;;;24.70;54.00;;;;;;5114878;28;20215;-59
2022/08/16 10:01:00;;;;;;;2.63;2.43;;;24.70;52.20;;;;;;5097691;28;20195;-59
2022/08/16 10:03:25;;;;;;;2.63;2.43;;;24.80;53.30;;;;;;5114640;28;20192;-59
2022/08/16 10:05:51;;;;;;;3.80;2.90;;;24.80;53.20;;;;;;5094449;28;20183;-59
2022/08/16 10:08:17;;;;;;;2.77;2.57;;;24.80;53.30;;;;;;5072618;28;20188;-59
2022/08/16 10:13:10;;;;;;;2.73;2.47;;;24.80;51.30;;;;;;5080275;28;20253;-59
2022/08/16 10:13:32;;;;;;;4.37;2.90;;;24.80;53.20;;;;;;5129444;27;20209;-59
2022/08/16 10:15:58;;;;;;;2.70;2.50;;;24.80;52.40;;;;;;5101183;28;20204;-59
2022/08/16 10:18:26;;;;;;;3.20;3.00;;;24.90;51.80;;;;;;5115451;27;20261;-59
2022/08/16 10:20:54;;;;;;;3.03;2.80;;;24.90;55.00;;;;;;5137246;27;20176;-59
2022/08/16 10:23:21;;;;;;;2.87;2.67;;;24.90;51.00;;;;;;5111198;27;20254;-60
2022/08/16 10:25:47;;;;;;;3.03;2.83;;;25.00;50.50;;;;;;5109922;27;20231;-60
2022/08/16 10:28:14;;;;;;;3.20;2.90;;;25.00;51.30;;;;;;5095966;28;20184;-60
2022/08/16 10:30:43;;;;;;;3.33;3.03;;;25.00;52.80;;;;;;5117560;27;20184;-59
2022/08/16 10:33:10;;;;;;;4.30;3.20;;;25.10;52.00;;;;;;5102170;27;20188;-60
2022/08/16 10:35:36;;;;;;;3.00;2.80;;;25.00;52.30;;;;;;5113840;27;20195;-60
2022/08/16 10:38:02;;;;;;;2.90;2.53;;;25.00;52.40;;;;;;5072543;27;20302;-60
2022/08/16 10:40:28;;;;;;;3.07;2.83;;;25.10;52.70;;;;;;5119214;27;20272;-60
2022/08/16 10:42:54;;;;;;;3.23;2.93;;;25.00;52.80;;;;;;5101119;27;20183;-60
2022/08/16 10:45:20;;;;;;;4.63;3.43;;;25.10;53.20;;;;;;5101238;27;20176;-60
2022/08/16 10:47:46;;;;;;;3.20;3.00;;;25.10;55.40;;;;;;5100888;27;20255;-60
2022/08/16 10:50:12;;;;;;;3.50;2.77;;;25.20;54.00;;;;;;5120030;27;20184;-60
2022/08/16 10:52:38;;;;;;;3.03;2.70;;;25.20;53.00;;;;;;5100300;27;20190;-60
2022/08/16 10:55:08;;;;;;;2.87;2.67;;;25.20;54.10;;;;;;5137763;27;20221;-60
2022/08/16 10:57:34;;;;;;;4.17;3.30;;;25.30;55.30;;;;;;5120240;27;20200;-60
2022/08/16 10:59:59;;;;;;;3.70;3.20;;;25.40;53.30;;;;;;5111765;27;20176;-60
2022/08/16 11:02:25;;;;;;;4.63;3.37;;;25.60;53.50;;;;;;5099577;27;20181;-60
2022/08/16 11:04:52;;;;;;;3.23;3.03;;;25.70;50.00;;;;;;5119995;27;20184;-60
2022/08/16 11:07:18;;;;;;;5.30;3.90;;;26.00;49.10;;;;;;5120178;27;20236;-60
2022/08/16 11:09:44;;;;;;;4.00;3.63;;;26.00;50.40;;;;;;5103005;27;20195;-59
2022/08/16 11:12:11;;;;;;;4.83;4.43;;;26.20;51.00;;;;;;5103253;27;20194;-59
2022/08/16 11:14:37;;;;;;;8.70;5.77;;;26.20;49.80;;;;;;5132383;27;20194;-59
2022/08/16 11:17:04;;;;;;;6.93;5.43;;;26.20;52.80;;;;;;5112799;28;20180;-59
2022/08/16 11:19:31;;;;;;;6.60;4.90;;;26.30;51.40;;;;;;5087504;28;20197;-59
2022/08/16 11:21:58;;;;;;;4.47;4.07;;;26.30;51.30;;;;;;5094560;28;20256;-59
2022/08/16 11:24:24;;;;;;;4.10;3.70;;;26.50;51.20;;;;;;5103676;28;20247;-59
2022/08/16 11:26:51;;;;;;;4.90;4.40;;;26.50;47.80;;;;;;5099714;27;20268;-59
2022/08/16 11:29:17;;;;;;;5.17;4.20;;;26.60;48.80;;;;;;5100822;27;20210;-59
2022/08/16 11:31:45;;;;;;;4.60;4.20;;;26.70;49.40;;;;;;5107705;28;20176;-59
2022/08/16 11:34:14;;;;;;;6.80;4.60;;;26.70;49.40;;;;;;5117960;27;20264;-60
2022/08/16 11:36:40;;;;;;;6.43;5.17;;;26.80;48.40;;;;;;5102903;27;20184;-61
2022/08/16 11:39:06;;;;;;;5.97;4.77;;;26.90;49.50;;;;;;5118697;27;20302;-60
2022/08/16 11:41:34;;;;;;;4.33;3.93;;;27.00;50.70;;;;;;5102280;27;20183;-61
2022/08/16 11:44:00;;;;;;;6.23;3.73;;;27.10;47.40;;;;;;5096208;27;20205;-61
2022/08/16 11:46:26;;;;;;;5.37;3.40;;;27.10;47.90;;;;;;5099918;27;20188;-61
2022/08/16 11:48:54;;;;;;;3.93;3.63;;;27.10;46.40;;;;;;5110865;27;20175;-61
2022/08/16 11:51:19;;;;;;;4.70;3.60;;;27.00;48.90;;;;;;5129915;27;20182;-60
2022/08/16 11:53:45;;;;;;;3.87;3.40;;;27.20;48.90;;;;;;5085856;27;20187;-60
2022/08/16 11:56:11;;;;;;;5.60;3.60;;;27.20;49.00;;;;;;5113098;27;20639;-60
2022/08/16 11:58:38;;;;;;;5.83;4.00;;;27.50;50.70;;;;;;5134211;27;20223;-60
2022/08/16 12:01:05;;;;;;;4.23;3.83;;;27.50;48.20;;;;;;5101692;27;20188;-60
2022/08/16 12:03:32;;;;;;;4.17;3.80;;;27.70;48.90;;;;;;5115427;27;20195;-61
2022/08/16 12:06:01;;;;;;;4.40;3.27;;;27.80;47.70;;;;;;5081437;27;20193;-61
2022/08/16 12:08:27;;;;;;;5.00;3.33;;;28.00;47.90;;;;;;5132534;27;20218;-60
2022/08/16 12:10:54;;;;;;;3.80;3.50;;;28.00;45.90;;;;;;5116407;27;20188;-60
2022/08/16 12:13:19;;;;;;;5.20;4.20;;;27.90;47.20;;;;;;5078632;27;20290;-60
2022/08/16 12:15:45;;;;;;;5.30;4.17;;;27.70;48.30;;;;;;5114091;27;20247;-61
2022/08/16 12:18:10;;;;;;;5.07;3.77;;;27.70;49.90;;;;;;5098563;27;20207;-61
2022/08/16 12:20:40;;;;;;;3.93;3.63;;;27.50;50.20;;;;;;5076976;27;20232;-61
2022/08/16 12:23:06;;;;;;;4.40;4.00;;;27.40;52.20;;;;;;5115093;27;20176;-61
2022/08/16 12:25:34;;;;;;;4.03;3.67;;;27.30;52.60;;;;;;5116575;27;20254;-60
2022/08/16 12:28:00;;;;;;;3.83;3.43;;;27.20;53.80;;;;;;5112476;27;20275;-60
2022/08/16 12:30:33;;;;;;;4.57;3.53;;;27.10;54.20;;;;;;5132801;27;20191;-60
2022/08/16 12:33:00;;;;;;;4.07;3.63;;;26.90;53.90;;;;;;5105105;27;20200;-60
2022/08/16 12:35:28;;;;;;;3.93;3.53;;;26.80;55.60;;;;;;5099243;27;20193;-60
2022/08/16 12:37:57;;;;;;;4.20;3.90;;;26.80;56.00;;;;;;5111304;27;20232;-60
2022/08/16 12:40:26;;;;;;;5.10;3.60;;;26.80;55.30;;;;;;5134756;27;20179;-60
2022/08/16 12:42:55;;;;;;;5.63;3.73;;;26.70;55.70;;;;;;5118014;27;20270;-60
2022/08/16 12:45:22;;;;;;;4.37;3.70;;;26.70;55.30;;;;;;5104273;28;20272;-60